Time,TemperatureC,DewpointC,PressurehPa,WindDirection,WindDirectionDegrees,WindSpeedKMH,WindSpeedGustKMH,Humidity,HourlyPrecipMM,Conditions,Clouds,dailyrainMM,SolarRadiationWatts/m^2,UVIndex,SoftwareType,DateUTC
2020-09-26 00:04:55,6.8,5.3,1009.8,SW,228,0,1.9,90,0.0,,,0.0,0,0,n/a,2020-09-25T12:04:55Z
2020-09-26 00:09:57,6.7,5.2,1009.7,SW,228,0,0,90,0.0,,,0.0,0,0,n/a,2020-09-25T12:09:57Z
2020-09-26 00:14:59,6.6,5.1,1009.6,SW,228,0,0,90,0.0,,,0.0,0,0,n/a,2020-09-25T12:14:59Z
2020-09-26 00:19:59,6.5,5,1009.6,SW,228,0.1,1.9,90,0.0,,,0.0,0,0,n/a,2020-09-25T12:19:59Z
2020-09-26 00:24:50,6.4,4.9,1009.6,SW,228,0,0,90,0.0,,,0.0,0,0,n/a,2020-09-25T12:24:50Z
2020-09-26 00:29:59,6.3,4.8,1009.6,SW,228,0,0,90,0.0,,,0.0,0,0,n/a,2020-09-25T12:29:59Z
2020-09-26 00:34:54,6.2,4.7,1009.8,SW,228,0,0,90,0.0,,,0.0,0,0,n/a,2020-09-25T12:34:54Z
2020-09-26 00:39:56,6.1,4.6,1009.8,SW,228,0,0,90,0.0,,,0.0,0,0,n/a,2020-09-25T12:39:56Z
2020-09-26 00:44:59,6,4.5,1009.9,SW,228,0,0,90,0.0,,,0.0,0,0,n/a,2020-09-25T12:44:59Z
2020-09-26 00:49:59,5.9,4.4,1009.8,SW,228,0,1.6,90,0.0,,,0.0,0,0,n/a,2020-09-25T12:49:59Z
2020-09-26 00:54:55,5.9,4.5,1009.8,SW,228,0.1,1.9,90.1,0.0,,,0.0,0,0,n/a,2020-09-25T12:54:55Z
2020-09-26 00:59:58,6,4.7,1009.8,SW,228,0.1,1.9,91,0.0,,,0.0,0,0,n/a,2020-09-25T12:59:58Z
2020-09-26 01:04:58,6,4.7,1009.8,SW,228,0,0,91,0.0,,,0.0,0,0,n/a,2020-09-25T13:04:58Z
2020-09-26 01:09:57,6,4.6,1009.8,SW,228,0,0,91,0.0,,,0.0,0,0,n/a,2020-09-25T13:09:57Z
2020-09-26 01:14:54,5.9,4.6,1009.7,SW,228,0,3.7,91,0.0,,,0.0,0,0,n/a,2020-09-25T13:14:54Z
2020-09-26 01:19:54,5.9,4.5,1009.8,SW,228,0.2,3.7,90.5,0.0,,,0.0,0,0,n/a,2020-09-25T13:19:54Z
2020-09-26 01:24:59,5.9,4.5,1009.9,SW,228,0.5,3.7,91,0.0,,,0.0,0,0,n/a,2020-09-25T13:24:59Z
2020-09-26 01:29:55,5.8,4.5,1009.8,SW,228,0.4,1.9,91,0.0,,,0.0,0,0,n/a,2020-09-25T13:29:55Z
2020-09-26 01:34:58,5.8,4.5,1009.8,SW,228,0.4,1.9,91,0.0,,,0.0,0,0,n/a,2020-09-25T13:34:58Z
2020-09-26 01:39:59,5.9,4.6,1009.7,SW,228,0,1.9,91,0.0,,,0.0,0,0,n/a,2020-09-25T13:39:59Z
2020-09-26 01:44:57,5.8,4.5,1009.8,SW,228,1,3.7,91,0.0,,,0.0,0,0,n/a,2020-09-25T13:44:57Z
2020-09-26 01:49:58,5.7,4.4,1009.8,SW,228,0.1,1.9,91,0.0,,,0.0,0,0,n/a,2020-09-25T13:49:58Z
2020-09-26 01:54:57,5.5,4.2,1009.8,SW,228,0,0,91,0.0,,,0.0,0,0,n/a,2020-09-25T13:54:57Z
2020-09-26 01:59:58,5.4,4,1009.8,SW,228,1.6,5.6,91,0.0,,,0.0,0,0,n/a,2020-09-25T13:59:58Z
2020-09-26 02:04:55,5.3,3.9,1009.7,SW,228,1.7,3.7,91,0.0,,,0.0,0,0,n/a,2020-09-25T14:04:55Z
2020-09-26 02:09:54,5.3,4,1009.7,SW,218,1.6,3.7,91,0.0,,,0.0,0,0,n/a,2020-09-25T14:09:54Z
2020-09-26 02:14:59,5.4,4.1,1009.8,SW,215,1.1,3.7,91,0.0,,,0.0,0,0,n/a,2020-09-25T14:14:59Z
2020-09-26 02:19:59,5.4,4.1,1009.6,SW,216,0,1.9,91,0.0,,,0.0,0,0,n/a,2020-09-25T14:19:59Z
2020-09-26 02:24:54,5.4,4.1,1009.6,SW,216,0,0,91,0.0,,,0.0,0,0,n/a,2020-09-25T14:24:54Z
2020-09-26 02:29:55,5.3,4,1009.6,SW,216,0,1.6,91,0.0,,,0.0,0,0,n/a,2020-09-25T14:29:55Z
2020-09-26 02:34:59,5.2,3.9,1009.6,SW,216,0.2,1.9,91,0.0,,,0.0,0,0,n/a,2020-09-25T14:34:59Z
2020-09-26 02:39:57,5.1,3.8,1009.5,SW,216,0,1.9,91,0.0,,,0.0,0,0,n/a,2020-09-25T14:39:57Z
2020-09-26 02:44:58,5.1,3.7,1009.4,SW,216,0.7,1.9,91,0.0,,,0.0,0,0,n/a,2020-09-25T14:44:58Z
2020-09-26 02:49:59,5.1,3.7,1009.4,SW,216,0.5,1.9,91,0.0,,,0.0,0,0,n/a,2020-09-25T14:49:59Z
2020-09-26 02:54:55,5.1,3.8,1009.4,SSE,153,1.6,3.7,91.4,0.0,,,0.0,0,0,n/a,2020-09-25T14:54:55Z
2020-09-26 02:59:57,5.2,4,1009.4,SW,228,2,5.6,92,0.0,,,0.0,0,0,n/a,2020-09-25T14:59:57Z
2020-09-26 03:04:56,5.1,4,1009.3,WSW,253,1.1,5.6,92,0.0,,,0.0,0,0,n/a,2020-09-25T15:04:56Z
2020-09-26 03:09:59,5.1,3.9,1009.2,SSW,200,1.6,3.7,92,0.0,,,0.0,0,0,n/a,2020-09-25T15:09:59Z
2020-09-26 03:14:54,5.2,4,1009.1,SSE,168,0.8,3.7,92,0.0,,,0.0,0,0,n/a,2020-09-25T15:14:54Z
2020-09-26 03:19:59,5.3,4.1,1009.1,SSE,168,0,0,92,0.0,,,0.0,0,0,n/a,2020-09-25T15:19:59Z
2020-09-26 03:24:55,5.3,4.1,1009.1,SSE,168,0.1,1.9,92,0.0,,,0.0,0,0,n/a,2020-09-25T15:24:55Z
2020-09-26 03:29:58,5.2,4,1009.0,SSE,168,0,0,92,0.0,,,0.0,0,0,n/a,2020-09-25T15:29:58Z
2020-09-26 03:34:55,5.1,3.8,1009.1,SSE,168,0.4,1.9,91.6,0.0,,,0.0,0,0,n/a,2020-09-25T15:34:55Z
2020-09-26 03:39:54,4.9,3.5,1009.1,SSE,168,0.1,1.9,91,0.0,,,0.0,0,0,n/a,2020-09-25T15:39:54Z
2020-09-26 03:44:56,4.7,3.4,1009.1,SSE,168,0,0,91.2,0.0,,,0.0,0,0,n/a,2020-09-25T15:44:56Z
2020-09-26 03:49:56,4.7,3.4,1009.2,SSE,168,0,0,91.4,0.0,,,0.0,0,0,n/a,2020-09-25T15:49:56Z
2020-09-26 03:54:57,4.6,3.4,1009.2,SSE,168,0,0,91.8,0.0,,,0.0,0,0,n/a,2020-09-25T15:54:57Z
2020-09-26 03:59:57,4.6,3.4,1009.1,SSE,168,0,0,92,0.0,,,0.0,0,0,n/a,2020-09-25T15:59:57Z
2020-09-26 04:04:57,4.6,3.4,1009.1,SSE,168,0.3,1.9,92,0.0,,,0.0,0,0,n/a,2020-09-25T16:04:57Z
2020-09-26 04:09:56,5,3.9,1009.1,SSE,168,0.9,3.7,92.4,0.0,,,0.0,0,0,n/a,2020-09-25T16:09:56Z
2020-09-26 04:14:59,5.2,4,1009.1,SSE,168,0,0,92.1,0.0,,,0.0,0,0,n/a,2020-09-25T16:14:59Z
2020-09-26 04:19:54,5.2,4.1,1009.1,SSE,168,0.7,3.7,92.3,0.0,,,0.0,0,0,n/a,2020-09-25T16:19:54Z
2020-09-26 04:24:58,5.6,4.6,1009.1,SSE,168,0.6,1.9,93,0.0,,,0.0,0,0,n/a,2020-09-25T16:24:58Z
2020-09-26 04:29:59,6,4.9,1009.1,SSE,168,0.8,3.7,93,0.0,,,0.0,0,0,n/a,2020-09-25T16:29:59Z
2020-09-26 04:34:50,6.6,5.5,1009.2,SSE,168,1.5,3.7,93,0.0,,,0.0,0,0,n/a,2020-09-25T16:34:50Z
2020-09-26 04:39:50,7.1,6.1,1009.2,SSE,151,3,6.4,93.2,0.0,,,0.0,0,0,n/a,2020-09-25T16:39:50Z
2020-09-26 04:44:59,7.7,6.8,1009.3,SE,134,2.8,5.6,93.5,0.0,,,0.0,0,0,n/a,2020-09-25T16:44:59Z
2020-09-26 04:49:59,8.2,7.2,1009.3,SE,133,2.7,5.6,93.3,0.0,,,0.0,0,0,n/a,2020-09-25T16:49:59Z
2020-09-26 04:54:56,8.3,7.2,1009.3,SE,133,2.7,5.6,93,0.0,,,0.0,0,0,n/a,2020-09-25T16:54:56Z
2020-09-26 04:59:58,8.2,7.1,1009.4,SE,133,1.1,3.7,92.7,0.0,,,0.0,0,0,n/a,2020-09-25T16:59:58Z
2020-09-26 05:04:58,7.8,6.6,1009.3,SE,133,0.6,3.7,92,0.0,,,0.0,0,0,n/a,2020-09-25T17:04:58Z
2020-09-26 05:09:58,7.7,6.5,1009.3,SE,133,0.7,3.7,92,0.0,,,0.0,0,0,n/a,2020-09-25T17:09:58Z
2020-09-26 05:14:54,7.4,6.2,1009.3,SE,133,0.2,1.9,92,0.0,,,0.0,0,0,n/a,2020-09-25T17:14:54Z
2020-09-26 05:19:55,7.2,5.9,1009.2,SE,133,0,0,91.5,0.0,,,0.0,0,0,n/a,2020-09-25T17:19:55Z
2020-09-26 05:29:57,6.8,5.6,1009.1,SE,133,0.9,3.7,92,0.0,,,0.0,0,0,n/a,2020-09-25T17:29:57Z
2020-09-26 05:34:54,6.8,5.6,1009.0,SE,133,0.4,1.9,92,0.0,,,0.0,0,0,n/a,2020-09-25T17:34:54Z
2020-09-26 05:39:58,6.7,5.5,1009.0,SE,133,0,1.6,92,0.0,,,0.0,0,0,n/a,2020-09-25T17:39:58Z
2020-09-26 05:44:55,6.6,5.4,1009.0,SE,133,0.8,3.7,92,0.0,,,0.0,0,0,n/a,2020-09-25T17:44:55Z
2020-09-26 05:49:55,6.5,5.3,1009.0,SE,133,1.6,5.6,92,0.0,,,0.0,0,0,n/a,2020-09-25T17:49:55Z
2020-09-26 05:54:59,6.3,5.1,1009.1,SE,133,0.6,3.7,92,0.0,,,0.0,0,0,n/a,2020-09-25T17:54:59Z
2020-09-26 05:59:59,6.1,4.9,1009.2,SE,133,0.4,3.7,91.8,0.0,,,0.0,0,0,n/a,2020-09-25T17:59:59Z
2020-09-26 06:04:58,6.1,4.9,1009.2,SE,133,0.8,1.9,92,0.0,,,0.0,0,0,n/a,2020-09-25T18:04:58Z
2020-09-26 06:09:54,6.3,5.1,1009.1,SE,133,1.9,5.6,92,0.0,,,0.0,0,0,n/a,2020-09-25T18:09:54Z
2020-09-26 06:14:57,6.4,5.2,1009.0,SE,133,0.7,3.7,92,0.0,,,0.0,5,0,n/a,2020-09-25T18:14:57Z
2020-09-26 06:19:57,6.4,5.1,1009.0,SE,133,0.7,3.7,92,0.0,,,0.0,7,0,n/a,2020-09-25T18:19:57Z
2020-09-26 06:24:54,6.3,5.1,1009.1,SE,133,0.6,3.7,92,0.0,,,0.0,12,0,n/a,2020-09-25T18:24:54Z
2020-09-26 06:29:54,6.2,5,1009.0,SE,133,1.1,5.6,92,0.0,,,0.0,16,0,n/a,2020-09-25T18:29:54Z
2020-09-26 06:34:54,6.3,5.1,1008.9,SE,133,0.8,5.6,92,0.0,,,0.0,18,0,n/a,2020-09-25T18:34:54Z
2020-09-26 06:39:59,6.3,5.1,1008.9,SE,133,2.8,6.4,92,0.0,,,0.0,19,0,n/a,2020-09-25T18:39:59Z
2020-09-26 06:44:54,6.4,5.2,1008.8,SE,137,3.7,8,92,0.0,,,0.0,23,0,n/a,2020-09-25T18:44:54Z
2020-09-26 06:49:55,6.9,5.6,1008.8,SE,139,4,7.4,91.2,0.0,,,0.0,40,0,n/a,2020-09-25T18:49:55Z
2020-09-26 06:54:58,7.3,5.8,1009.0,SSE,163,1.5,6.4,90.3,0.0,,,0.0,44,0,n/a,2020-09-25T18:54:58Z
2020-09-26 06:59:58,7.6,5.9,1009.0,South,184,0.8,3.7,89.2,0.0,,,0.0,54,0,n/a,2020-09-25T18:59:58Z
2020-09-26 07:04:59,7.8,6,1008.9,South,184,0.2,1.9,89,0.0,,,0.0,74,0,n/a,2020-09-25T19:04:59Z
2020-09-26 07:09:55,8,6.2,1008.9,South,184,0.4,1.9,88.8,0.0,,,0.0,114,0,n/a,2020-09-25T19:09:55Z
2020-09-26 07:14:56,8.3,6.4,1009.0,SW,228,2.9,13,88,0.0,,,0.0,128,0,n/a,2020-09-25T19:14:56Z
2020-09-26 07:19:50,9.1,6.8,1008.8,NW,304,6.7,14.5,85.8,0.0,,,0.0,146,0,n/a,2020-09-25T19:19:50Z